sensor_id;sensor_type;location;lat;lon;timestamp;temperature;humidity
11091;DHT22;5599;52.210;21.046;2023-11-21T00:00:17;0.60;99.90
11091;DHT22;5599;52.210;21.046;2023-11-21T00:02:46;0.60;99.90
11091;DHT22;5599;52.210;21.046;2023-11-21T00:05:16;0.60;99.90
11091;DHT22;5599;52.210;21.046;2023-11-21T00:07:45;0.50;99.90
11091;DHT22;5599;52.210;21.046;2023-11-21T00:10:16;0.50;99.90
11091;DHT22;5599;52.210;21.046;2023-11-21T00:12:45;0.50;99.90
11091;DHT22;5599;52.210;21.046;2023-11-21T00:15:16;0.50;99.90
11091;DHT22;5599;52.210;21.046;2023-11-21T00:17:46;0.40;99.90
11091;DHT22;5599;52.210;21.046;2023-11-21T00:20:15;0.40;99.90
11091;DHT22;5599;52.210;21.046;2023-11-21T00:22:44;0.50;99.90
11091;DHT22;5599;52.210;21.046;2023-11-21T00:25:15;0.60;99.90
11091;DHT22;5599;52.210;21.046;2023-11-21T00:27:45;0.60;99.90
11091;DHT22;5599;52.210;21.046;2023-11-21T00:30:14;0.50;99.90
11091;DHT22;5599;52.210;21.046;2023-11-21T00:32:44;0.50;99.90
11091;DHT22;5599;52.210;21.046;2023-11-21T00:35:13;0.50;99.90
11091;DHT22;5599;52.210;21.046;2023-11-21T00:37:43;0.40;99.90
11091;DHT22;5599;52.210;21.046;2023-11-21T00:40:13;0.40;99.90
11091;DHT22;5599;52.210;21.046;2023-11-21T00:42:45;0.40;99.90
11091;DHT22;5599;52.210;21.046;2023-11-21T00:45:14;0.40;99.90
11091;DHT22;5599;52.210;21.046;2023-11-21T00:47:43;0.40;99.90
11091;DHT22;5599;52.210;21.046;2023-11-21T00:50:12;0.40;99.90
11091;DHT22;5599;52.210;21.046;2023-11-21T00:52:41;0.40;99.90
11091;DHT22;5599;52.210;21.046;2023-11-21T00:55:11;0.40;99.90
11091;DHT22;5599;52.210;21.046;2023-11-21T00:57:40;0.40;99.90
11091;DHT22;5599;52.210;21.046;2023-11-21T01:00:11;0.30;99.90
11091;DHT22;5599;52.210;21.046;2023-11-21T01:02:44;0.30;99.90
11091;DHT22;5599;52.210;21.046;2023-11-21T01:05:14;0.20;99.90
11091;DHT22;5599;52.210;21.046;2023-11-21T01:07:44;0.20;99.90
11091;DHT22;5599;52.210;21.046;2023-11-21T01:10:13;0.30;99.90
11091;DHT22;5599;52.210;21.046;2023-11-21T01:12:42;0.30;99.90
11091;DHT22;5599;52.210;21.046;2023-11-21T01:15:13;0.30;99.90
11091;DHT22;5599;52.210;21.046;2023-11-21T01:17:43;0.30;99.90
11091;DHT22;5599;52.210;21.046;2023-11-21T01:20:12;0.30;99.90
11091;DHT22;5599;52.210;21.046;2023-11-21T01:22:41;0.30;99.90
11091;DHT22;5599;52.210;21.046;2023-11-21T01:25:11;0.30;99.90
11091;DHT22;5599;52.210;21.046;2023-11-21T01:27:43;0.30;99.90
11091;DHT22;5599;52.210;21.046;2023-11-21T01:30:13;0.30;99.90
11091;DHT22;5599;52.210;21.046;2023-11-21T01:32:43;0.30;99.90
11091;DHT22;5599;52.210;21.046;2023-11-21T01:35:13;0.30;99.90
11091;DHT22;5599;52.210;21.046;2023-11-21T01:37:42;0.30;99.90
11091;DHT22;5599;52.210;21.046;2023-11-21T01:40:12;0.30;99.90
11091;DHT22;5599;52.210;21.046;2023-11-21T01:42:42;0.20;99.90
11091;DHT22;5599;52.210;21.046;2023-11-21T01:45:14;0.20;99.90
11091;DHT22;5599;52.210;21.046;2023-11-21T01:47:44;0.20;99.90
11091;DHT22;5599;52.210;21.046;2023-11-21T01:50:16;0.10;99.90
11091;DHT22;5599;52.210;21.046;2023-11-21T01:52:46;0.20;99.90
11091;DHT22;5599;52.210;21.046;2023-11-21T01:55:17;0.10;99.90
11091;DHT22;5599;52.210;21.046;2023-11-21T01:57:56;0.10;99.90
11091;DHT22;5599;52.210;21.046;2023-11-21T02:00:26;0.00;99.90
11091;DHT22;5599;52.210;21.046;2023-11-21T02:02:57;0.00;99.90
11091;DHT22;5599;52.210;21.046;2023-11-21T02:05:27;0.10;99.90
11091;DHT22;5599;52.210;21.046;2023-11-21T02:07:59;0.10;99.90
11091;DHT22;5599;52.210;21.046;2023-11-21T02:10:28;0.20;99.90
11091;DHT22;5599;52.210;21.046;2023-11-21T02:12:59;0.20;99.90
11091;DHT22;5599;52.210;21.046;2023-11-21T02:15:32;0.20;99.90
11091;DHT22;5599;52.210;21.046;2023-11-21T02:18:01;0.10;99.90
11091;DHT22;5599;52.210;21.046;2023-11-21T02:20:31;0.10;99.90
11091;DHT22;5599;52.210;21.046;2023-11-21T02:23:05;0.00;99.90
11091;DHT22;5599;52.210;21.046;2023-11-21T02:25:34;0.00;93.50
11091;DHT22;5599;52.210;21.046;2023-11-21T02:28:05;0.00;93.80
11091;DHT22;5599;52.210;21.046;2023-11-21T02:30:35;0.00;81.60
11091;DHT22;5599;52.210;21.046;2023-11-21T02:33:05;0.00;73.30
11091;DHT22;5599;52.210;21.046;2023-11-21T02:35:34;-0.10;58.50
11091;DHT22;5599;52.210;21.046;2023-11-21T02:38:05;-0.10;51.80
11091;DHT22;5599;52.210;21.046;2023-11-21T02:40:34;-0.10;71.90
11091;DHT22;5599;52.210;21.046;2023-11-21T02:43:03;-0.10;65.10
11091;DHT22;5599;52.210;21.046;2023-11-21T02:45:33;0.00;72.10
11091;DHT22;5599;52.210;21.046;2023-11-21T02:48:03;0.00;99.60
11091;DHT22;5599;52.210;21.046;2023-11-21T02:50:32;0.10;99.90
11091;DHT22;5599;52.210;21.046;2023-11-21T02:53:03;0.00;99.90
11091;DHT22;5599;52.210;21.046;2023-11-21T02:55:35;0.00;77.00
11091;DHT22;5599;52.210;21.046;2023-11-21T02:58:04;0.00;89.90
11091;DHT22;5599;52.210;21.046;2023-11-21T03:00:34;-0.10;77.50
11091;DHT22;5599;52.210;21.046;2023-11-21T03:03:03;-0.10;91.20
11091;DHT22;5599;52.210;21.046;2023-11-21T03:05:32;-0.20;73.00
11091;DHT22;5599;52.210;21.046;2023-11-21T03:08:03;-0.20;66.70
11091;DHT22;5599;52.210;21.046;2023-11-21T03:10:34;-0.20;80.10
11091;DHT22;5599;52.210;21.046;2023-11-21T03:13:03;-0.10;94.30
11091;DHT22;5599;52.210;21.046;2023-11-21T03:15:33;-0.10;95.90
11091;DHT22;5599;52.210;21.046;2023-11-21T03:18:04;-0.20;93.10
11091;DHT22;5599;52.210;21.046;2023-11-21T03:20:33;-0.20;94.40
11091;DHT22;5599;52.210;21.046;2023-11-21T03:23:03;-0.10;99.90
11091;DHT22;5599;52.210;21.046;2023-11-21T03:25:34;-0.20;96.50
11091;DHT22;5599;52.210;21.046;2023-11-21T03:28:03;-0.10;99.90
11091;DHT22;5599;52.210;21.046;2023-11-21T03:30:33;-0.10;99.90
11091;DHT22;5599;52.210;21.046;2023-11-21T03:33:04;-0.20;99.90
11091;DHT22;5599;52.210;21.046;2023-11-21T03:35:33;-0.20;99.90
11091;DHT22;5599;52.210;21.046;2023-11-21T03:38:03;-0.20;99.90
11091;DHT22;5599;52.210;21.046;2023-11-21T03:40:34;-0.20;99.90
11091;DHT22;5599;52.210;21.046;2023-11-21T03:43:03;-0.30;99.90
11091;DHT22;5599;52.210;21.046;2023-11-21T03:45:32;-0.20;99.90
11091;DHT22;5599;52.210;21.046;2023-11-21T03:48:01;-0.10;99.90
11091;DHT22;5599;52.210;21.046;2023-11-21T03:50:31;-0.10;99.90
11091;DHT22;5599;52.210;21.046;2023-11-21T03:53:01;-0.10;99.90
11091;DHT22;5599;52.210;21.046;2023-11-21T03:55:31;-0.20;99.90
11091;DHT22;5599;52.210;21.046;2023-11-21T03:58:01;-0.20;99.90
11091;DHT22;5599;52.210;21.046;2023-11-21T04:00:31;-0.10;99.90
11091;DHT22;5599;52.210;21.046;2023-11-21T04:03:00;-0.20;99.90
11091;DHT22;5599;52.210;21.046;2023-11-21T04:05:31;-0.20;99.90
11091;DHT22;5599;52.210;21.046;2023-11-21T04:08:00;-0.20;99.90
11091;DHT22;5599;52.210;21.046;2023-11-21T04:10:29;-0.20;98.80
11091;DHT22;5599;52.210;21.046;2023-11-21T04:12:58;-0.10;99.90
11091;DHT22;5599;52.210;21.046;2023-11-21T04:15:29;-0.10;92.20
11091;DHT22;5599;52.210;21.046;2023-11-21T04:17:58;-0.20;93.70
11091;DHT22;5599;52.210;21.046;2023-11-21T04:20:27;-0.20;90.90
11091;DHT22;5599;52.210;21.046;2023-11-21T04:22:56;-0.30;90.00
11091;DHT22;5599;52.210;21.046;2023-11-21T04:25:25;-0.40;99.90
11091;DHT22;5599;52.210;21.046;2023-11-21T04:27:56;-0.40;99.90
11091;DHT22;5599;52.210;21.046;2023-11-21T04:30:25;-0.40;99.90
11091;DHT22;5599;52.210;21.046;2023-11-21T04:32:55;-0.50;99.90
11091;DHT22;5599;52.210;21.046;2023-11-21T04:35:24;-0.40;99.90
11091;DHT22;5599;52.210;21.046;2023-11-21T04:37:53;-0.40;99.90
11091;DHT22;5599;52.210;21.046;2023-11-21T04:40:22;-0.40;99.90
11091;DHT22;5599;52.210;21.046;2023-11-21T04:42:52;-0.30;99.90
11091;DHT22;5599;52.210;21.046;2023-11-21T04:45:21;-0.30;99.90
11091;DHT22;5599;52.210;21.046;2023-11-21T04:47:50;-0.40;99.90
11091;DHT22;5599;52.210;21.046;2023-11-21T04:50:21;-0.30;99.90
11091;DHT22;5599;52.210;21.046;2023-11-21T04:52:50;-0.40;99.90
11091;DHT22;5599;52.210;21.046;2023-11-21T04:55:20;-0.50;99.90
11091;DHT22;5599;52.210;21.046;2023-11-21T04:57:49;-0.50;99.90
11091;DHT22;5599;52.210;21.046;2023-11-21T05:00:19;-0.50;99.90
11091;DHT22;5599;52.210;21.046;2023-11-21T05:02:48;-0.40;99.90
11091;DHT22;5599;52.210;21.046;2023-11-21T05:05:18;-0.40;99.90
11091;DHT22;5599;52.210;21.046;2023-11-21T05:07:49;-0.30;99.90
11091;DHT22;5599;52.210;21.046;2023-11-21T05:10:18;-0.30;99.90
11091;DHT22;5599;52.210;21.046;2023-11-21T05:12:47;-0.30;99.90
11091;DHT22;5599;52.210;21.046;2023-11-21T05:15:17;-0.30;99.90
11091;DHT22;5599;52.210;21.046;2023-11-21T05:17:47;-0.40;99.90
11091;DHT22;5599;52.210;21.046;2023-11-21T05:20:18;-0.40;99.90
11091;DHT22;5599;52.210;21.046;2023-11-21T05:22:50;-0.40;99.90
11091;DHT22;5599;52.210;21.046;2023-11-21T05:25:20;-0.30;99.90
11091;DHT22;5599;52.210;21.046;2023-11-21T05:27:49;-0.30;99.90
11091;DHT22;5599;52.210;21.046;2023-11-21T05:30:18;-0.40;99.90
11091;DHT22;5599;52.210;21.046;2023-11-21T05:32:47;-0.40;99.90
11091;DHT22;5599;52.210;21.046;2023-11-21T05:35:17;-0.40;99.90
11091;DHT22;5599;52.210;21.046;2023-11-21T05:37:46;-0.50;99.90
11091;DHT22;5599;52.210;21.046;2023-11-21T05:40:17;-0.40;99.90
11091;DHT22;5599;52.210;21.046;2023-11-21T05:42:46;-0.50;99.90
11091;DHT22;5599;52.210;21.046;2023-11-21T05:45:15;-0.50;99.90
11091;DHT22;5599;52.210;21.046;2023-11-21T05:47:46;-0.50;99.90
11091;DHT22;5599;52.210;21.046;2023-11-21T05:50:16;-0.40;99.90
11091;DHT22;5599;52.210;21.046;2023-11-21T05:52:47;-0.40;99.90
11091;DHT22;5599;52.210;21.046;2023-11-21T05:55:18;-0.40;99.90
11091;DHT22;5599;52.210;21.046;2023-11-21T05:57:49;-0.40;99.90
11091;DHT22;5599;52.210;21.046;2023-11-21T06:00:18;-0.30;99.90
11091;DHT22;5599;52.210;21.046;2023-11-21T06:02:49;-0.40;99.90
11091;DHT22;5599;52.210;21.046;2023-11-21T06:05:23;-0.40;99.90
11091;DHT22;5599;52.210;21.046;2023-11-21T06:07:54;-0.30;99.90
11091;DHT22;5599;52.210;21.046;2023-11-21T06:10:25;-0.30;99.90
11091;DHT22;5599;52.210;21.046;2023-11-21T06:12:56;-0.30;99.90
11091;DHT22;5599;52.210;21.046;2023-11-21T06:15:30;-0.40;93.10
11091;DHT22;5599;52.210;21.046;2023-11-21T06:17:59;-0.30;99.90
11091;DHT22;5599;52.210;21.046;2023-11-21T06:20:28;-0.30;99.80
11091;DHT22;5599;52.210;21.046;2023-11-21T06:22:58;-0.40;98.80
11091;DHT22;5599;52.210;21.046;2023-11-21T06:25:33;-0.30;99.90
11091;DHT22;5599;52.210;21.046;2023-11-21T06:28:04;-0.40;93.00
11091;DHT22;5599;52.210;21.046;2023-11-21T06:30:33;-0.30;99.90
11091;DHT22;5599;52.210;21.046;2023-11-21T06:33:03;-0.40;84.20
11091;DHT22;5599;52.210;21.046;2023-11-21T06:35:32;-0.50;81.50
11091;DHT22;5599;52.210;21.046;2023-11-21T06:38:02;-0.50;95.50
11091;DHT22;5599;52.210;21.046;2023-11-21T06:40:33;-0.50;91.70
11091;DHT22;5599;52.210;21.046;2023-11-21T06:43:02;-0.50;99.90
11091;DHT22;5599;52.210;21.046;2023-11-21T06:45:32;-0.50;95.30
11091;DHT22;5599;52.210;21.046;2023-11-21T06:48:02;-0.60;90.40
11091;DHT22;5599;52.210;21.046;2023-11-21T06:50:31;-0.60;99.90
11091;DHT22;5599;52.210;21.046;2023-11-21T06:53:01;-0.50;99.90
11091;DHT22;5599;52.210;21.046;2023-11-21T06:55:37;-0.50;99.90
11091;DHT22;5599;52.210;21.046;2023-11-21T06:58:07;-0.50;99.90
11091;DHT22;5599;52.210;21.046;2023-11-21T07:00:37;-0.40;99.90
11091;DHT22;5599;52.210;21.046;2023-11-21T07:03:06;-0.50;99.90
11091;DHT22;5599;52.210;21.046;2023-11-21T07:05:35;-0.40;99.90
11091;DHT22;5599;52.210;21.046;2023-11-21T07:08:06;-0.40;99.90
11091;DHT22;5599;52.210;21.046;2023-11-21T07:10:37;-0.40;99.40
11091;DHT22;5599;52.210;21.046;2023-11-21T07:13:07;-0.40;73.40
11091;DHT22;5599;52.210;21.046;2023-11-21T07:15:40;-0.50;49.70
11091;DHT22;5599;52.210;21.046;2023-11-21T07:18:09;-0.50;59.80
11091;DHT22;5599;52.210;21.046;2023-11-21T07:20:39;-0.40;77.00
11091;DHT22;5599;52.210;21.046;2023-11-21T07:23:09;-0.40;65.20
11091;DHT22;5599;52.210;21.046;2023-11-21T07:25:39;-0.40;73.90
11091;DHT22;5599;52.210;21.046;2023-11-21T07:28:09;-0.40;65.00
11091;DHT22;5599;52.210;21.046;2023-11-21T07:30:39;-0.50;63.00
11091;DHT22;5599;52.210;21.046;2023-11-21T07:33:08;-0.50;67.00
11091;DHT22;5599;52.210;21.046;2023-11-21T07:35:37;-0.40;81.80
11091;DHT22;5599;52.210;21.046;2023-11-21T07:38:07;-0.40;86.50
11091;DHT22;5599;52.210;21.046;2023-11-21T07:40:39;-0.30;85.70
11091;DHT22;5599;52.210;21.046;2023-11-21T07:43:08;-0.30;81.80
11091;DHT22;5599;52.210;21.046;2023-11-21T07:45:38;-0.30;78.80
11091;DHT22;5599;52.210;21.046;2023-11-21T07:48:11;-0.30;78.50
11091;DHT22;5599;52.210;21.046;2023-11-21T07:50:42;-0.30;78.50
11091;DHT22;5599;52.210;21.046;2023-11-21T07:53:11;-0.30;77.40
11091;DHT22;5599;52.210;21.046;2023-11-21T07:55:44;-0.30;76.90
11091;DHT22;5599;52.210;21.046;2023-11-21T07:58:15;-0.30;54.20
11091;DHT22;5599;52.210;21.046;2023-11-21T08:00:45;-0.30;27.10
11091;DHT22;5599;52.210;21.046;2023-11-21T08:03:15;-0.40;13.90
11091;DHT22;5599;52.210;21.046;2023-11-21T08:05:44;-0.30;11.30
11091;DHT22;5599;52.210;21.046;2023-11-21T08:08:13;-0.40;1.00
11091;DHT22;5599;52.210;21.046;2023-11-21T08:10:47;-0.30;1.00
11091;DHT22;5599;52.210;21.046;2023-11-21T08:13:24;-0.30;1.00
11091;DHT22;5599;52.210;21.046;2023-11-21T08:15:55;-0.30;1.00
11091;DHT22;5599;52.210;21.046;2023-11-21T08:18:25;-0.20;1.00
11091;DHT22;5599;52.210;21.046;2023-11-21T08:20:55;-0.20;1.00
11091;DHT22;5599;52.210;21.046;2023-11-21T08:23:25;-0.20;1.00
11091;DHT22;5599;52.210;21.046;2023-11-21T08:25:55;-0.30;1.00
11091;DHT22;5599;52.210;21.046;2023-11-21T08:28:25;-0.30;1.00
11091;DHT22;5599;52.210;21.046;2023-11-21T08:30:54;-0.30;1.00
11091;DHT22;5599;52.210;21.046;2023-11-21T08:33:24;-0.30;1.00
11091;DHT22;5599;52.210;21.046;2023-11-21T08:35:53;-0.30;1.00
11091;DHT22;5599;52.210;21.046;2023-11-21T08:38:22;-0.20;1.00
11091;DHT22;5599;52.210;21.046;2023-11-21T08:40:52;-0.20;1.00
11091;DHT22;5599;52.210;21.046;2023-11-21T08:43:23;-0.20;1.00
11091;DHT22;5599;52.210;21.046;2023-11-21T08:45:55;-0.20;1.00
11091;DHT22;5599;52.210;21.046;2023-11-21T08:48:24;-0.30;1.00
11091;DHT22;5599;52.210;21.046;2023-11-21T08:50:56;-0.30;1.00
11091;DHT22;5599;52.210;21.046;2023-11-21T08:53:25;-0.30;1.00
11091;DHT22;5599;52.210;21.046;2023-11-21T08:55:54;-0.20;1.00
11091;DHT22;5599;52.210;21.046;2023-11-21T08:58:25;-0.20;1.00
11091;DHT22;5599;52.210;21.046;2023-11-21T09:00:55;-0.20;1.00
11091;DHT22;5599;52.210;21.046;2023-11-21T09:03:24;-0.20;1.00
11091;DHT22;5599;52.210;21.046;2023-11-21T09:05:53;-0.30;1.00
11091;DHT22;5599;52.210;21.046;2023-11-21T09:08:22;-0.30;1.00
11091;DHT22;5599;52.210;21.046;2023-11-21T09:10:51;-0.30;1.00
11091;DHT22;5599;52.210;21.046;2023-11-21T09:13:21;-0.30;1.00
11091;DHT22;5599;52.210;21.046;2023-11-21T09:15:55;-0.20;1.00
11091;DHT22;5599;52.210;21.046;2023-11-21T09:18:25;-0.20;1.00
11091;DHT22;5599;52.210;21.046;2023-11-21T09:20:54;-0.20;1.00
11091;DHT22;5599;52.210;21.046;2023-11-21T09:23:24;-0.10;1.00
11091;DHT22;5599;52.210;21.046;2023-11-21T09:25:53;-0.10;1.70
11091;DHT22;5599;52.210;21.046;2023-11-21T09:28:25;-0.10;1.00
11091;DHT22;5599;52.210;21.046;2023-11-21T09:30:56;-0.10;17.10
11091;DHT22;5599;52.210;21.046;2023-11-21T09:33:25;-0.10;17.10
11091;DHT22;5599;52.210;21.046;2023-11-21T09:35:54;-0.10;3.80
11091;DHT22;5599;52.210;21.046;2023-11-21T09:38:24;0.00;11.70
11091;DHT22;5599;52.210;21.046;2023-11-21T09:40:53;0.10;2.70
11091;DHT22;5599;52.210;21.046;2023-11-21T09:43:28;0.10;1.00
11091;DHT22;5599;52.210;21.046;2023-11-21T09:46:02;0.10;1.00
11091;DHT22;5599;52.210;21.046;2023-11-21T09:48:39;0.00;1.00
11091;DHT22;5599;52.210;21.046;2023-11-21T09:51:09;0.00;1.00
11091;DHT22;5599;52.210;21.046;2023-11-21T09:53:42;0.00;1.00
11091;DHT22;5599;52.210;21.046;2023-11-21T09:56:14;0.00;1.00
11091;DHT22;5599;52.210;21.046;2023-11-21T09:58:46;0.10;1.00
11091;DHT22;5599;52.210;21.046;2023-11-21T10:01:19;0.10;1.00
11091;DHT22;5599;52.210;21.046;2023-11-21T10:03:50;0.10;1.00
11091;DHT22;5599;52.210;21.046;2023-11-21T10:06:20;0.10;1.00
11091;DHT22;5599;52.210;21.046;2023-11-21T10:08:50;0.10;1.00
11091;DHT22;5599;52.210;21.046;2023-11-21T10:11:25;0.10;1.00
11091;DHT22;5599;52.210;21.046;2023-11-21T10:13:55;0.10;1.00
11091;DHT22;5599;52.210;21.046;2023-11-21T10:16:28;0.20;1.00
11091;DHT22;5599;52.210;21.046;2023-11-21T10:18:58;0.20;1.00
11091;DHT22;5599;52.210;21.046;2023-11-21T10:21:38;0.10;1.00
11091;DHT22;5599;52.210;21.046;2023-11-21T10:24:08;0.10;1.00
11091;DHT22;5599;52.210;21.046;2023-11-21T10:26:37;0.00;1.00
11091;DHT22;5599;52.210;21.046;2023-11-21T10:29:19;0.10;1.00
11091;DHT22;5599;52.210;21.046;2023-11-21T10:31:51;0.20;1.00
11091;DHT22;5599;52.210;21.046;2023-11-21T10:34:23;0.20;1.00
11091;DHT22;5599;52.210;21.046;2023-11-21T10:36:52;0.20;1.00
11091;DHT22;5599;52.210;21.046;2023-11-21T10:39:24;0.20;1.00
11091;DHT22;5599;52.210;21.046;2023-11-21T10:41:56;0.10;1.00
11091;DHT22;5599;52.210;21.046;2023-11-21T10:44:25;0.10;1.00
11091;DHT22;5599;52.210;21.046;2023-11-21T10:46:56;0.20;1.00
11091;DHT22;5599;52.210;21.046;2023-11-21T10:49:27;0.10;1.00
11091;DHT22;5599;52.210;21.046;2023-11-21T10:51:57;0.20;1.00
11091;DHT22;5599;52.210;21.046;2023-11-21T10:54:26;0.20;1.00
11091;DHT22;5599;52.210;21.046;2023-11-21T10:56:57;0.30;1.00
11091;DHT22;5599;52.210;21.046;2023-11-21T10:59:30;0.30;1.00
11091;DHT22;5599;52.210;21.046;2023-11-21T11:02:05;0.40;1.00
11091;DHT22;5599;52.210;21.046;2023-11-21T11:04:39;0.40;1.00
11091;DHT22;5599;52.210;21.046;2023-11-21T11:07:11;0.40;1.00
11091;DHT22;5599;52.210;21.046;2023-11-21T11:09:42;0.40;1.00
11091;DHT22;5599;52.210;21.046;2023-11-21T11:12:13;0.30;1.00
11091;DHT22;5599;52.210;21.046;2023-11-21T11:14:45;0.30;1.00
11091;DHT22;5599;52.210;21.046;2023-11-21T11:17:17;0.20;1.00
11091;DHT22;5599;52.210;21.046;2023-11-21T11:19:48;0.20;1.00
11091;DHT22;5599;52.210;21.046;2023-11-21T11:22:27;0.10;1.00
11091;DHT22;5599;52.210;21.046;2023-11-21T11:25:12;0.00;1.00
11091;DHT22;5599;52.210;21.046;2023-11-21T11:27:52;0.10;1.00
11091;DHT22;5599;52.210;21.046;2023-11-21T11:30:35;0.00;1.00
11091;DHT22;5599;52.210;21.046;2023-11-21T11:33:20;0.00;1.00
11091;DHT22;5599;52.210;21.046;2023-11-21T11:36:00;0.00;1.00
11091;DHT22;5599;52.210;21.046;2023-11-21T11:38:32;0.00;1.00
11091;DHT22;5599;52.210;21.046;2023-11-21T11:41:04;0.00;1.00
11091;DHT22;5599;52.210;21.046;2023-11-21T11:43:34;0.00;1.00
11091;DHT22;5599;52.210;21.046;2023-11-21T11:46:12;0.00;1.00
11091;DHT22;5599;52.210;21.046;2023-11-21T11:48:44;0.00;1.00
11091;DHT22;5599;52.210;21.046;2023-11-21T11:51:15;0.10;1.00
11091;DHT22;5599;52.210;21.046;2023-11-21T11:53:47;0.00;1.00
11091;DHT22;5599;52.210;21.046;2023-11-21T11:56:25;0.00;1.00
11091;DHT22;5599;52.210;21.046;2023-11-21T11:58:56;0.00;1.00
11091;DHT22;5599;52.210;21.046;2023-11-21T12:01:27;0.00;1.00
11091;DHT22;5599;52.210;21.046;2023-11-21T12:04:27;-0.20;1.00
11091;DHT22;5599;52.210;21.046;2023-11-21T12:07:03;-0.10;1.00
11091;DHT22;5599;52.210;21.046;2023-11-21T12:09:33;-0.10;1.00
11091;DHT22;5599;52.210;21.046;2023-11-21T12:12:04;-0.20;1.00
11091;DHT22;5599;52.210;21.046;2023-11-21T12:14:34;-0.20;1.00
11091;DHT22;5599;52.210;21.046;2023-11-21T12:17:05;-0.30;1.00
11091;DHT22;5599;52.210;21.046;2023-11-21T12:19:35;-0.20;1.00
11091;DHT22;5599;52.210;21.046;2023-11-21T12:22:06;-0.10;1.00
11091;DHT22;5599;52.210;21.046;2023-11-21T12:24:35;-0.10;1.00
11091;DHT22;5599;52.210;21.046;2023-11-21T12:27:05;-0.10;1.00
11091;DHT22;5599;52.210;21.046;2023-11-21T12:29:34;-0.10;1.00
11091;DHT22;5599;52.210;21.046;2023-11-21T12:32:05;-0.10;1.00
11091;DHT22;5599;52.210;21.046;2023-11-21T12:34:36;-0.10;1.00
11091;DHT22;5599;52.210;21.046;2023-11-21T12:37:06;0.00;1.00
11091;DHT22;5599;52.210;21.046;2023-11-21T12:39:36;0.10;1.00
11091;DHT22;5599;52.210;21.046;2023-11-21T12:42:05;0.20;1.00
11091;DHT22;5599;52.210;21.046;2023-11-21T12:44:35;0.30;1.00
11091;DHT22;5599;52.210;21.046;2023-11-21T12:47:05;0.20;1.00
11091;DHT22;5599;52.210;21.046;2023-11-21T12:49:36;0.00;1.00
11091;DHT22;5599;52.210;21.046;2023-11-21T12:52:06;0.00;1.00
11091;DHT22;5599;52.210;21.046;2023-11-21T12:54:35;-0.10;1.00
11091;DHT22;5599;52.210;21.046;2023-11-21T12:57:04;-0.10;1.00
11091;DHT22;5599;52.210;21.046;2023-11-21T12:59:36;-0.10;1.00
11091;DHT22;5599;52.210;21.046;2023-11-21T13:02:07;-0.10;1.00
11091;DHT22;5599;52.210;21.046;2023-11-21T13:04:38;0.00;1.00
11091;DHT22;5599;52.210;21.046;2023-11-21T13:07:07;0.00;1.00
11091;DHT22;5599;52.210;21.046;2023-11-21T13:09:42;0.00;1.00
11091;DHT22;5599;52.210;21.046;2023-11-21T13:12:11;0.10;1.00
11091;DHT22;5599;52.210;21.046;2023-11-21T13:14:41;0.10;1.00
11091;DHT22;5599;52.210;21.046;2023-11-21T13:17:11;0.10;1.00
11091;DHT22;5599;52.210;21.046;2023-11-21T13:19:41;0.20;1.00
11091;DHT22;5599;52.210;21.046;2023-11-21T13:22:11;0.20;1.00
11091;DHT22;5599;52.210;21.046;2023-11-21T13:24:40;0.10;1.00
11091;DHT22;5599;52.210;21.046;2023-11-21T13:27:10;0.00;1.00
11091;DHT22;5599;52.210;21.046;2023-11-21T13:29:39;0.00;1.00
11091;DHT22;5599;52.210;21.046;2023-11-21T13:32:09;-0.10;1.00
11091;DHT22;5599;52.210;21.046;2023-11-21T13:34:41;-0.10;1.00
11091;DHT22;5599;52.210;21.046;2023-11-21T13:37:15;-0.10;1.00
11091;DHT22;5599;52.210;21.046;2023-11-21T13:39:44;-0.10;1.00
11091;DHT22;5599;52.210;21.046;2023-11-21T13:42:19;-0.10;1.00
11091;DHT22;5599;52.210;21.046;2023-11-21T13:44:56;0.00;1.00
11091;DHT22;5599;52.210;21.046;2023-11-21T13:47:25;0.00;1.00
11091;DHT22;5599;52.210;21.046;2023-11-21T13:49:59;0.00;1.00
11091;DHT22;5599;52.210;21.046;2023-11-21T13:52:29;0.00;1.00
11091;DHT22;5599;52.210;21.046;2023-11-21T13:55:01;-0.10;1.00
11091;DHT22;5599;52.210;21.046;2023-11-21T13:57:34;-0.20;1.00
11091;DHT22;5599;52.210;21.046;2023-11-21T14:00:04;-0.20;1.00
11091;DHT22;5599;52.210;21.046;2023-11-21T14:02:38;-0.10;1.00
11091;DHT22;5599;52.210;21.046;2023-11-21T14:05:13;0.00;1.00
11091;DHT22;5599;52.210;21.046;2023-11-21T14:07:49;0.00;1.00
11091;DHT22;5599;52.210;21.046;2023-11-21T14:10:18;0.00;1.00
11091;DHT22;5599;52.210;21.046;2023-11-21T14:12:51;-0.10;1.00
11091;DHT22;5599;52.210;21.046;2023-11-21T14:15:20;-0.20;1.00
11091;DHT22;5599;52.210;21.046;2023-11-21T14:17:50;-0.20;1.00
11091;DHT22;5599;52.210;21.046;2023-11-21T14:20:21;-0.20;1.00
11091;DHT22;5599;52.210;21.046;2023-11-21T14:22:50;-0.30;1.00
11091;DHT22;5599;52.210;21.046;2023-11-21T14:25:19;-0.30;1.00
11091;DHT22;5599;52.210;21.046;2023-11-21T14:27:50;-0.30;1.00
11091;DHT22;5599;52.210;21.046;2023-11-21T14:30:20;-0.20;1.00
11091;DHT22;5599;52.210;21.046;2023-11-21T14:32:50;-0.20;1.00
11091;DHT22;5599;52.210;21.046;2023-11-21T14:35:21;-0.30;1.00
11091;DHT22;5599;52.210;21.046;2023-11-21T14:37:50;-0.30;1.00
11091;DHT22;5599;52.210;21.046;2023-11-21T14:40:21;-0.30;1.00
11091;DHT22;5599;52.210;21.046;2023-11-21T14:42:52;-0.20;1.00
11091;DHT22;5599;52.210;21.046;2023-11-21T14:45:24;-0.20;1.00
11091;DHT22;5599;52.210;21.046;2023-11-21T14:47:55;-0.20;1.00
11091;DHT22;5599;52.210;21.046;2023-11-21T14:50:35;-0.20;1.00
11091;DHT22;5599;52.210;21.046;2023-11-21T14:53:18;-0.20;1.00
11091;DHT22;5599;52.210;21.046;2023-11-21T14:56:07;-0.30;1.00
11091;DHT22;5599;52.210;21.046;2023-11-21T14:58:37;-0.30;1.00
11091;DHT22;5599;52.210;21.046;2023-11-21T15:01:06;-0.30;1.00
11091;DHT22;5599;52.210;21.046;2023-11-21T15:03:39;-0.30;1.00
11091;DHT22;5599;52.210;21.046;2023-11-21T15:06:19;-0.20;1.00
11091;DHT22;5599;52.210;21.046;2023-11-21T15:08:55;-0.20;1.00
11091;DHT22;5599;52.210;21.046;2023-11-21T15:11:47;-0.10;1.00
11091;DHT22;5599;52.210;21.046;2023-11-21T15:14:19;-0.10;1.00
11091;DHT22;5599;52.210;21.046;2023-11-21T15:16:53;-0.20;1.00
11091;DHT22;5599;52.210;21.046;2023-11-21T15:19:31;-0.30;1.00
11091;DHT22;5599;52.210;21.046;2023-11-21T15:22:04;-0.30;1.00
11091;DHT22;5599;52.210;21.046;2023-11-21T15:24:42;-0.30;1.00
11091;DHT22;5599;52.210;21.046;2023-11-21T15:27:22;-0.30;1.00
11091;DHT22;5599;52.210;21.046;2023-11-21T15:29:53;-0.30;1.00
11091;DHT22;5599;52.210;21.046;2023-11-21T15:32:25;-0.30;1.00
11091;DHT22;5599;52.210;21.046;2023-11-21T15:34:56;-0.30;1.00
11091;DHT22;5599;52.210;21.046;2023-11-21T15:37:29;-0.40;1.00
11091;DHT22;5599;52.210;21.046;2023-11-21T15:39:59;-0.40;1.00
11091;DHT22;5599;52.210;21.046;2023-11-21T15:42:33;-0.40;1.00
11091;DHT22;5599;52.210;21.046;2023-11-21T15:45:08;-0.40;1.00
11091;DHT22;5599;52.210;21.046;2023-11-21T15:47:39;-0.40;1.00
11091;DHT22;5599;52.210;21.046;2023-11-21T15:50:15;-0.40;1.00
11091;DHT22;5599;52.210;21.046;2023-11-21T15:53:02;-0.40;1.00
11091;DHT22;5599;52.210;21.046;2023-11-21T15:55:34;-0.40;1.00
11091;DHT22;5599;52.210;21.046;2023-11-21T15:58:14;-0.40;1.00
11091;DHT22;5599;52.210;21.046;2023-11-21T16:00:44;-0.40;1.00
11091;DHT22;5599;52.210;21.046;2023-11-21T16:03:15;-0.40;1.00
11091;DHT22;5599;52.210;21.046;2023-11-21T16:05:45;-0.40;1.00
11091;DHT22;5599;52.210;21.046;2023-11-21T16:08:15;-0.40;1.00